createdAt,value
2023-01-01T00:01:44.602Z,98440.16
2023-01-01T00:04:49.949Z,98440.59
2023-01-01T00:08:04.342Z,98432.38
2023-01-01T00:11:12.412Z,98430.63
2023-01-01T00:14:17.030Z,98446.38
2023-01-01T00:17:21.640Z,98451.63
2023-01-01T00:20:34.898Z,98454.91
2023-01-01T00:23:43.660Z,98447.91
2023-01-01T00:26:50.254Z,98453.56
2023-01-01T00:29:55.008Z,98436.75
2023-01-01T00:32:59.773Z,98445.06
2023-01-01T00:36:09.378Z,98434.13
2023-01-01T00:39:15.532Z,98450.81
2023-01-01T00:42:22.338Z,98438.81
2023-01-01T00:45:26.660Z,98440.41
2023-01-01T00:48:31.581Z,98435.44
2023-01-01T00:51:37.348Z,98433.16
2023-01-01T00:54:44.015Z,98441.25
2023-01-01T00:57:48.726Z,98440.75
2023-01-01T01:00:55.734Z,98450.38
2023-01-01T01:04:02.390Z,98448.91
2023-01-01T01:07:07.185Z,98443.53
2023-01-01T01:10:14.575Z,98442.34
2023-01-01T01:13:19.451Z,98448.13
2023-01-01T01:16:26.928Z,98442.22
2023-01-01T01:19:33.455Z,98446.00
2023-01-01T01:22:38.423Z,98455.47
2023-01-01T01:25:44.523Z,98453.38
2023-01-01T01:28:50.313Z,98452.34
2023-01-01T01:31:55.057Z,98455.13
2023-01-01T01:35:01.550Z,98455.13
2023-01-01T01:38:07.009Z,98449.25
2023-01-01T01:41:26.911Z,98449.22
2023-01-01T01:45:03.256Z,98456.75
2023-01-01T01:48:10.009Z,98459.44
2023-01-01T01:51:17.682Z,98458.00
2023-01-01T01:54:26.259Z,98464.06
2023-01-01T01:57:34.052Z,98453.38
2023-01-01T02:00:39.351Z,98461.53
2023-01-01T02:03:50.031Z,98455.41
2023-01-01T02:06:55.722Z,98463.28
2023-01-01T02:10:00.941Z,98455.53
2023-01-01T02:13:07.482Z,98461.22
2023-01-01T02:16:21.841Z,98456.91
2023-01-01T02:19:39.137Z,98463.78
2023-01-01T02:23:05.504Z,98453.81
2023-01-01T02:26:38.964Z,98455.66
2023-01-01T02:29:51.091Z,98457.28
2023-01-01T02:33:00.975Z,98449.53
2023-01-01T02:36:08.429Z,98452.00
2023-01-01T02:39:16.006Z,98451.31
2023-01-01T02:42:23.020Z,98455.72
2023-01-01T02:45:29.321Z,98458.19
2023-01-01T02:48:40.975Z,98460.00
2023-01-01T02:52:01.507Z,98455.25
2023-01-01T02:55:12.091Z,98460.88
2023-01-01T02:58:43.625Z,98472.56
2023-01-01T03:01:56.907Z,98471.06
2023-01-01T03:05:11.053Z,98468.50
2023-01-01T03:08:19.788Z,98473.78
2023-01-01T03:11:27.755Z,98480.16
2023-01-01T03:14:42.308Z,98484.16
2023-01-01T03:17:55.148Z,98477.44
2023-01-01T03:21:04.348Z,98477.91
2023-01-01T03:24:11.531Z,98483.22
2023-01-01T03:27:20.264Z,98499.78
2023-01-01T03:30:26.773Z,98516.06
2023-01-01T03:33:39.497Z,98518.28
2023-01-01T03:36:48.517Z,98525.06
2023-01-01T03:39:54.866Z,98523.78
2023-01-01T03:43:06.861Z,98525.41
2023-01-01T03:46:13.045Z,98527.06
2023-01-01T03:49:20.266Z,98526.81
2023-01-01T03:52:33.583Z,98528.72
2023-01-01T03:55:43.415Z,98525.22
2023-01-01T03:58:55.996Z,98528.97
2023-01-01T04:02:04.629Z,98525.47
2023-01-01T04:05:12.455Z,98521.47
2023-01-01T04:08:18.382Z,98518.22
2023-01-01T04:11:45.358Z,98520.91
2023-01-01T04:14:50.273Z,98511.78
2023-01-01T04:17:56.749Z,98513.91
2023-01-01T04:21:02.739Z,98518.75
2023-01-01T04:24:10.249Z,98526.25
2023-01-01T04:27:15.192Z,98518.19
2023-01-01T04:30:20.307Z,98517.94
2023-01-01T04:33:25.296Z,98519.25
2023-01-01T04:36:31.483Z,98506.94
2023-01-01T04:39:36.699Z,98504.75
2023-01-01T04:42:41.633Z,98501.50
2023-01-01T04:45:46.330Z,98508.47
2023-01-01T04:48:51.397Z,98514.38
2023-01-01T04:51:57.891Z,98506.31
2023-01-01T04:55:02.534Z,98513.59
2023-01-01T04:58:07.152Z,98517.06
2023-01-01T05:01:17.742Z,98526.44
2023-01-01T05:04:22.743Z,98516.53
2023-01-01T05:07:29.364Z,98518.91
2023-01-01T05:10:34.084Z,98522.16
2023-01-01T05:13:39.856Z,98528.31
2023-01-01T05:16:44.736Z,98524.81
2023-01-01T05:19:49.871Z,98532.09
2023-01-01T05:22:57.966Z,98528.59
2023-01-01T05:26:02.612Z,98538.25
2023-01-01T05:29:15.283Z,98535.84
2023-01-01T05:32:21.030Z,98546.31
2023-01-01T05:35:26.798Z,98542.56
2023-01-01T05:38:33.427Z,98539.34
2023-01-01T05:41:39.542Z,98541.78
2023-01-01T05:44:44.269Z,98539.38
2023-01-01T05:47:50.911Z,98542.59
2023-01-01T05:50:55.751Z,98542.34
2023-01-01T05:54:02.075Z,98553.06
2023-01-01T05:57:06.720Z,98544.25
2023-01-01T06:00:13.100Z,98547.19
2023-01-01T06:03:18.383Z,98556.84
2023-01-01T06:06:25.094Z,98552.31
2023-01-01T06:09:31.321Z,98555.00
2023-01-01T06:12:37.705Z,98561.19
2023-01-01T06:15:42.880Z,98560.63
2023-01-01T06:18:47.508Z,98567.91
2023-01-01T06:21:52.337Z,98566.56
2023-01-01T06:24:58.404Z,98571.94
2023-01-01T06:28:04.400Z,98571.41
2023-01-01T06:31:10.973Z,98575.69
2023-01-01T06:34:15.931Z,98577.31
2023-01-01T06:37:20.880Z,98573.00
2023-01-01T06:40:27.348Z,98584.25
2023-01-01T06:43:35.648Z,98580.47
2023-01-01T06:46:41.324Z,98577.19
2023-01-01T06:49:46.259Z,98582.00
2023-01-01T06:52:50.855Z,98580.91
2023-01-01T06:55:57.686Z,98576.31
2023-01-01T06:59:03.341Z,98570.69
2023-01-01T07:02:10.071Z,98570.97
2023-01-01T07:05:15.215Z,98578.28
2023-01-01T07:08:20.389Z,98589.91
2023-01-01T07:11:27.314Z,98581.06
2023-01-01T07:14:32.129Z,98581.91
2023-01-01T07:17:39.576Z,98582.41
2023-01-01T07:20:44.313Z,98590.72
2023-01-01T07:23:49.280Z,98590.47
2023-01-01T07:26:55.563Z,98591.00
2023-01-01T07:30:00.161Z,98593.94
2023-01-01T07:33:04.952Z,98600.38
2023-01-01T07:36:10.687Z,98605.47
2023-01-01T07:39:15.430Z,98608.69
2023-01-01T07:42:22.072Z,98613.00
2023-01-01T07:45:27.135Z,98619.47
2023-01-01T07:48:39.587Z,98632.91
2023-01-01T07:51:44.769Z,98633.44
2023-01-01T07:54:49.892Z,98641.78
2023-01-01T07:57:59.575Z,98641.53
2023-01-01T08:01:04.548Z,98649.84
2023-01-01T08:04:08.945Z,98655.50
2023-01-01T08:07:13.414Z,98662.19
2023-01-01T08:10:19.058Z,98661.91
2023-01-01T08:13:25.559Z,98661.66
2023-01-01T08:16:31.019Z,98666.50
2023-01-01T08:19:36.045Z,98661.69
2023-01-01T08:22:40.669Z,98672.69
2023-01-01T08:25:45.345Z,98673.75
2023-01-01T08:28:56.959Z,98670.81
2023-01-01T08:32:03.915Z,98671.34
2023-01-01T08:35:09.193Z,98673.25
2023-01-01T08:38:15.153Z,98676.44
2023-01-01T08:41:20.094Z,98668.66
2023-01-01T08:44:26.579Z,98685.03
2023-01-01T08:47:34.251Z,98682.66
2023-01-01T08:50:38.901Z,98685.31
2023-01-01T08:53:50.617Z,98675.66
2023-01-01T08:56:55.935Z,98676.97
2023-01-01T09:00:03.585Z,98674.50
2023-01-01T09:03:10.191Z,98679.03
2023-01-01T09:06:15.302Z,98683.00
2023-01-01T09:09:25.732Z,98680.00
2023-01-01T09:12:36.370Z,98681.84
2023-01-01T09:15:43.469Z,98681.28
2023-01-01T09:18:48.563Z,98693.63
2023-01-01T09:21:54.200Z,98693.88
2023-01-01T09:24:59.058Z,98693.53
2023-01-01T09:28:05.124Z,98695.13
2023-01-01T09:31:11.685Z,98693.22
2023-01-01T09:34:16.966Z,98694.19
2023-01-01T09:37:22.086Z,98691.25
2023-01-01T09:40:35.847Z,98698.75
2023-01-01T09:43:48.738Z,98692.31
2023-01-01T09:46:56.157Z,98695.44
2023-01-01T09:50:04.979Z,98695.44
2023-01-01T09:53:15.308Z,98700.72
2023-01-01T09:56:25.629Z,98701.97
2023-01-01T09:59:30.939Z,98699.06
2023-01-01T10:02:51.539Z,98701.91
2023-01-01T10:06:11.124Z,98697.59
2023-01-01T10:09:25.548Z,98705.19
2023-01-01T10:12:38.757Z,98707.47
2023-01-01T10:15:51.900Z,98696.28
2023-01-01T10:19:00.845Z,98682.69
2023-01-01T10:22:09.797Z,98673.91
2023-01-01T10:25:20.149Z,98671.03
2023-01-01T10:28:29.343Z,98675.75
2023-01-01T10:31:36.540Z,98673.50
2023-01-01T10:34:44.925Z,98671.13
2023-01-01T10:37:53.404Z,98674.63
2023-01-01T10:41:05.453Z,98674.56
2023-01-01T10:44:11.090Z,98673.88
2023-01-01T10:47:28.905Z,98666.38
2023-01-01T10:50:45.379Z,98668.28
2023-01-01T10:53:56.023Z,98664.66
2023-01-01T10:57:02.432Z,98670.78
2023-01-01T11:00:22.945Z,98665.34
2023-01-01T11:03:29.509Z,98657.41
2023-01-01T11:06:39.695Z,98655.69
2023-01-01T11:09:57.209Z,98655.97
2023-01-01T11:13:20.339Z,98643.19
2023-01-01T11:16:25.603Z,98647.22
2023-01-01T11:19:32.939Z,98636.38
2023-01-01T11:22:43.695Z,98632.56
2023-01-01T11:26:00.425Z,98637.06
2023-01-01T11:29:19.572Z,98630.00
2023-01-01T11:32:33.603Z,98624.66
2023-01-01T11:35:51.763Z,98618.00
2023-01-01T11:39:17.484Z,98609.78
2023-01-01T11:42:25.841Z,98592.38
2023-01-01T11:45:37.762Z,98593.94
2023-01-01T11:48:45.925Z,98595.53
2023-01-01T11:51:53.160Z,98585.13
2023-01-01T11:55:06.976Z,98587.53
2023-01-01T11:58:19.985Z,98589.09
2023-01-01T12:01:29.142Z,98577.94
2023-01-01T12:04:40.126Z,98578.25
2023-01-01T12:07:46.391Z,98576.81
2023-01-01T12:11:07.457Z,98572.38
2023-01-01T12:14:21.880Z,98558.00
2023-01-01T12:17:31.135Z,98565.31
2023-01-01T12:20:40.222Z,98560.84
2023-01-01T12:23:44.905Z,98560.25
2023-01-01T12:27:15.976Z,98557.50
2023-01-01T12:30:24.976Z,98557.47
2023-01-01T12:33:46.266Z,98543.28
2023-01-01T12:37:00.913Z,98543.13
2023-01-01T12:40:52.077Z,98537.31
2023-01-01T12:44:05.495Z,98534.25
2023-01-01T12:47:19.240Z,98532.75
2023-01-01T12:50:45.696Z,98529.97
2023-01-01T12:54:06.363Z,98533.13
2023-01-01T12:57:17.965Z,98534.16
2023-01-01T13:00:26.743Z,98537.13
2023-01-01T13:03:36.657Z,98538.50
2023-01-01T13:06:46.079Z,98541.00
2023-01-01T13:09:51.014Z,98538.56
2023-01-01T13:12:57.064Z,98537.28
2023-01-01T13:16:07.207Z,98527.81
2023-01-01T13:19:27.769Z,98525.34
2023-01-01T13:22:47.179Z,98522.78
2023-01-01T13:26:11.730Z,98519.59
2023-01-01T13:29:34.502Z,98517.47
2023-01-01T13:33:25.135Z,98518.28
2023-01-01T13:36:33.795Z,98509.97
2023-01-01T13:39:54.594Z,98517.34
2023-01-01T13:43:20.150Z,98509.44
2023-01-01T13:46:38.855Z,98499.13
2023-01-01T13:50:05.157Z,98506.84
2023-01-01T13:53:31.051Z,98510.75
2023-01-01T13:56:48.083Z,98503.50
2023-01-01T14:00:16.583Z,98491.16
2023-01-01T14:03:22.383Z,98503.75
2023-01-01T14:06:37.654Z,98509.59
2023-01-01T14:09:42.617Z,98501.34
2023-01-01T14:12:48.124Z,98508.47
2023-01-01T14:15:57.288Z,98511.31
2023-01-01T14:19:03.877Z,98508.69
2023-01-01T14:22:11.455Z,98513.06
2023-01-01T14:25:18.950Z,98512.81
2023-01-01T14:28:30.684Z,98522.66
2023-01-01T14:31:41.287Z,98525.03
2023-01-01T14:34:47.598Z,98520.84
2023-01-01T14:37:54.109Z,98519.38
2023-01-01T14:41:09.035Z,98519.25
2023-01-01T14:44:17.153Z,98526.50
2023-01-01T14:47:29.360Z,98523.66
2023-01-01T14:50:35.726Z,98518.03
2023-01-01T14:53:43.646Z,98512.97
2023-01-01T14:56:53.288Z,98519.47
2023-01-01T14:59:58.218Z,98515.09
2023-01-01T15:03:08.781Z,98519.34
2023-01-01T15:06:19.572Z,98518.16
2023-01-01T15:09:28.261Z,98511.75
2023-01-01T15:12:39.617Z,98519.66
2023-01-01T15:15:46.119Z,98520.56
2023-01-01T15:18:53.553Z,98515.41
2023-01-01T15:21:58.632Z,98526.78
2023-01-01T15:25:05.661Z,98516.69
2023-01-01T15:28:21.384Z,98523.56
2023-01-01T15:31:36.306Z,98521.16
2023-01-01T15:34:48.358Z,98519.34
2023-01-01T15:37:58.383Z,98520.91
2023-01-01T15:41:28.526Z,98525.66
2023-01-01T15:44:36.963Z,98510.22
2023-01-01T15:47:42.169Z,98518.25
2023-01-01T15:51:03.892Z,98511.91
2023-01-01T15:54:17.758Z,98511.78
2023-01-01T15:57:26.628Z,98512.91
2023-01-01T16:00:38.837Z,98507.09
2023-01-01T16:03:44.590Z,98513.34
2023-01-01T16:06:51.242Z,98515.25
2023-01-01T16:09:58.202Z,98512.91
2023-01-01T16:13:05.399Z,98510.56
2023-01-01T16:16:26.762Z,98504.19
2023-01-01T16:19:33.611Z,98501.53
2023-01-01T16:22:42.332Z,98491.59
2023-01-01T16:25:47.463Z,98499.44
2023-01-01T16:28:54.225Z,98498.44
2023-01-01T16:31:59.417Z,98491.47
2023-01-01T16:35:11.552Z,98498.53
2023-01-01T16:38:16.589Z,98503.97
2023-01-01T16:41:21.576Z,98498.34
2023-01-01T16:44:29.552Z,98498.63
2023-01-01T16:47:35.019Z,98496.81
2023-01-01T16:50:40.194Z,98495.22
2023-01-01T16:53:45.119Z,98487.16
2023-01-01T16:56:52.002Z,98485.59
2023-01-01T16:59:58.977Z,98489.38
2023-01-01T17:03:03.934Z,98475.13
2023-01-01T17:06:10.125Z,98486.97
2023-01-01T17:09:15.892Z,98481.88
2023-01-01T17:12:20.626Z,98478.41
2023-01-01T17:15:26.950Z,98475.72
2023-01-01T17:19:13.842Z,98467.66
2023-01-01T17:21:57.125Z,98469.81
2023-01-01T17:25:03.286Z,98469.00
2023-01-01T17:28:08.077Z,98478.88
2023-01-01T17:31:17.958Z,98473.75
2023-01-01T17:34:22.775Z,98471.88
2023-01-01T17:37:29.750Z,98472.41
2023-01-01T17:40:36.986Z,98468.41
2023-01-01T17:43:43.574Z,98467.06
2023-01-01T17:46:49.867Z,98469.78
2023-01-01T17:49:54.451Z,98464.13
2023-01-01T17:52:59.446Z,98457.75
2023-01-01T17:56:06.720Z,98453.19
2023-01-01T17:59:11.614Z,98457.78
2023-01-01T18:02:17.905Z,98452.94
2023-01-01T18:05:22.902Z,98454.81
2023-01-01T18:08:28.096Z,98462.63
2023-01-01T18:11:36.021Z,98462.63
2023-01-01T18:14:40.883Z,98464.28
2023-01-01T18:17:47.046Z,98464.31
2023-01-01T18:20:51.563Z,98460.28
2023-01-01T18:23:58.030Z,98464.03
2023-01-01T18:27:02.856Z,98461.34
2023-01-01T18:30:08.392Z,98455.44
2023-01-01T18:33:17.463Z,98458.66
2023-01-01T18:36:24.839Z,98457.06
2023-01-01T18:39:33.821Z,98469.66
2023-01-01T18:42:45.153Z,98461.91
2023-01-01T18:45:52.637Z,98458.66
2023-01-01T18:49:02.064Z,98455.47
2023-01-01T18:52:17.425Z,98454.94
2023-01-01T18:55:27.455Z,98456.50
2023-01-01T18:58:33.136Z,98446.88
2023-01-01T19:01:38.188Z,98446.59
2023-01-01T19:04:44.187Z,98437.75
2023-01-01T19:07:58.260Z,98427.22
2023-01-01T19:11:04.773Z,98427.38
2023-01-01T19:14:16.830Z,98429.28
2023-01-01T19:17:25.167Z,98423.78
2023-01-01T19:20:31.587Z,98417.97
2023-01-01T19:23:39.271Z,98417.00
2023-01-01T19:26:45.084Z,98414.69
2023-01-01T19:29:51.492Z,98412.69
2023-01-01T19:32:56.164Z,98404.78
2023-01-01T19:36:02.472Z,98389.38
2023-01-01T19:39:07.671Z,98405.28
2023-01-01T19:42:13.462Z,98400.13
2023-01-01T19:45:20.108Z,98391.06
2023-01-01T19:48:25.038Z,98387.06
2023-01-01T19:51:31.235Z,98381.41
2023-01-01T19:54:36.130Z,98375.78
2023-01-01T19:57:41.039Z,98370.13
2023-01-01T20:00:45.927Z,98364.13
2023-01-01T20:03:55.942Z,98371.34
2023-01-01T20:07:02.803Z,98372.63
2023-01-01T20:10:07.959Z,98369.13
2023-01-01T20:13:12.689Z,98369.53
2023-01-01T20:16:19.697Z,98361.81
2023-01-01T20:19:24.588Z,98364.13
2023-01-01T20:22:31.121Z,98364.13
2023-01-01T20:25:36.049Z,98364.31
2023-01-01T20:28:57.444Z,98358.09
2023-01-01T20:32:02.362Z,98353.69
2023-01-01T20:35:07.386Z,98349.91
2023-01-01T20:38:12.894Z,98343.19
2023-01-01T20:41:26.152Z,98342.50
2023-01-01T20:44:31.158Z,98355.19
2023-01-01T20:47:37.122Z,98359.72
2023-01-01T20:50:42.252Z,98377.13
2023-01-01T20:53:48.302Z,98374.50
2023-01-01T20:56:53.588Z,98373.78
2023-01-01T20:59:58.213Z,98365.06
2023-01-01T21:03:04.573Z,98362.25
2023-01-01T21:06:09.601Z,98362.25
2023-01-01T21:09:16.118Z,98367.97
2023-01-01T21:12:30.170Z,98369.47
2023-01-01T21:15:35.695Z,98371.19
2023-01-01T21:18:40.322Z,98369.47
2023-01-01T21:21:48.265Z,98365.28
2023-01-01T21:25:10.830Z,98371.69
2023-01-01T21:28:22.030Z,98369.88
2023-01-01T21:31:31.778Z,98379.91
2023-01-01T21:34:43.496Z,98376.41
2023-01-01T21:37:53.481Z,98368.72
2023-01-01T21:41:00.655Z,98369.84
2023-01-01T21:44:05.471Z,98373.03
2023-01-01T21:47:21.973Z,98360.91
2023-01-01T21:50:28.782Z,98361.91
2023-01-01T21:53:36.660Z,98360.91
2023-01-01T21:56:44.926Z,98351.28
2023-01-01T21:59:50.577Z,98353.97
2023-01-01T22:02:55.651Z,98357.28
2023-01-01T22:06:00.403Z,98371.50
2023-01-01T22:09:16.016Z,98364.66
2023-01-01T22:12:26.552Z,98362.69
2023-01-01T22:15:39.941Z,98366.09
2023-01-01T22:18:44.863Z,98361.19
2023-01-01T22:21:51.035Z,98377.63
2023-01-01T22:24:58.235Z,98369.09
2023-01-01T22:28:19.623Z,98378.00
2023-01-01T22:31:27.539Z,98380.13
2023-01-01T22:34:32.702Z,98378.19
2023-01-01T22:37:43.515Z,98374.69
2023-01-01T22:40:51.235Z,98368.09
2023-01-01T22:44:02.364Z,98368.69
2023-01-01T22:47:08.506Z,98369.31
2023-01-01T22:50:21.724Z,98376.63
2023-01-01T22:53:26.555Z,98370.91
2023-01-01T22:56:31.268Z,98380.34
2023-01-01T22:59:37.553Z,98371.53
2023-01-01T23:02:42.803Z,98364.81
2023-01-01T23:05:47.354Z,98368.81
2023-01-01T23:08:51.504Z,98376.94
2023-01-01T23:11:55.938Z,98362.72
2023-01-01T23:15:17.546Z,98350.09
2023-01-01T23:18:20.246Z,98355.13
2023-01-01T23:21:27.266Z,98347.91
2023-01-01T23:24:31.520Z,98341.09
2023-01-01T23:27:35.191Z,98343.38
2023-01-01T23:30:39.513Z,98331.38
2023-01-01T23:33:42.781Z,98332.38
2023-01-01T23:36:45.715Z,98330.38
2023-01-01T23:39:49.111Z,98329.97
2023-01-01T23:42:51.763Z,98318.78
2023-01-01T23:45:56.067Z,98313.63
2023-01-01T23:48:58.756Z,98325.88
2023-01-01T23:52:02.664Z,98322.16
2023-01-01T23:55:06.055Z,98315.31
2023-01-01T23:58:08.727Z,98320.38
